sensor_id;sensor_type;location;lat;lon;timestamp;P1;durP1;ratioP1;P2;durP2;ratioP2
46729;SDS011;32476;50.002;11.854;2022-08-19T00:01:49;24.80;;;20.25;;
46729;SDS011;32476;50.002;11.854;2022-08-19T00:04:21;22.75;;;19.25;;
46729;SDS011;32476;50.002;11.854;2022-08-19T00:06:50;26.17;;;20.23;;
46729;SDS011;32476;50.002;11.854;2022-08-19T00:09:17;21.20;;;18.50;;
46729;SDS011;32476;50.002;11.854;2022-08-19T00:11:46;21.52;;;19.23;;
46729;SDS011;32476;50.002;11.854;2022-08-19T00:14:13;21.15;;;18.38;;
46729;SDS011;32476;50.002;11.854;2022-08-19T00:16:42;22.17;;;18.50;;
46729;SDS011;32476;50.002;11.854;2022-08-19T00:19:14;22.83;;;18.65;;
46729;SDS011;32476;50.002;11.854;2022-08-19T00:21:41;23.35;;;19.02;;
46729;SDS011;32476;50.002;11.854;2022-08-19T00:24:09;25.17;;;19.58;;
46729;SDS011;32476;50.002;11.854;2022-08-19T00:26:38;23.30;;;20.02;;
46729;SDS011;32476;50.002;11.854;2022-08-19T00:29:10;24.48;;;20.25;;
46729;SDS011;32476;50.002;11.854;2022-08-19T00:31:41;23.60;;;20.70;;
46729;SDS011;32476;50.002;11.854;2022-08-19T00:34:08;25.80;;;21.33;;
46729;SDS011;32476;50.002;11.854;2022-08-19T00:36:35;28.30;;;22.27;;
46729;SDS011;32476;50.002;11.854;2022-08-19T00:39:03;28.88;;;22.40;;
46729;SDS011;32476;50.002;11.854;2022-08-19T00:41:29;26.10;;;21.67;;
46729;SDS011;32476;50.002;11.854;2022-08-19T00:43:59;25.75;;;22.15;;
46729;SDS011;32476;50.002;11.854;2022-08-19T00:46:36;28.60;;;23.58;;
46729;SDS011;32476;50.002;11.854;2022-08-19T00:49:07;26.75;;;21.83;;
46729;SDS011;32476;50.002;11.854;2022-08-19T00:51:47;27.52;;;22.00;;
46729;SDS011;32476;50.002;11.854;2022-08-19T00:54:17;26.20;;;20.92;;
46729;SDS011;32476;50.002;11.854;2022-08-19T00:56:46;34.70;;;22.42;;
46729;SDS011;32476;50.002;11.854;2022-08-19T00:59:13;27.13;;;22.08;;
46729;SDS011;32476;50.002;11.854;2022-08-19T01:01:42;24.75;;;21.45;;
46729;SDS011;32476;50.002;11.854;2022-08-19T01:04:11;25.05;;;20.40;;
46729;SDS011;32476;50.002;11.854;2022-08-19T01:06:37;22.52;;;18.77;;
46729;SDS011;32476;50.002;11.854;2022-08-19T01:09:07;22.67;;;18.45;;
46729;SDS011;32476;50.002;11.854;2022-08-19T01:11:36;273.42;;;97.32;;
46729;SDS011;32476;50.002;11.854;2022-08-19T01:14:07;20.70;;;15.50;;
46729;SDS011;32476;50.002;11.854;2022-08-19T01:16:35;17.52;;;15.60;;
46729;SDS011;32476;50.002;11.854;2022-08-19T01:19:06;19.50;;;14.05;;
46729;SDS011;32476;50.002;11.854;2022-08-19T01:21:47;1999.90;;;224.00;;
46729;SDS011;32476;50.002;11.854;2022-08-19T01:24:21;16.35;;;13.60;;
46729;SDS011;32476;50.002;11.854;2022-08-19T01:26:48;16.33;;;14.35;;
46729;SDS011;32476;50.002;11.854;2022-08-19T01:29:14;15.88;;;13.75;;
46729;SDS011;32476;50.002;11.854;2022-08-19T01:31:40;16.90;;;14.63;;
46729;SDS011;32476;50.002;11.854;2022-08-19T01:34:09;17.95;;;15.38;;
46729;SDS011;32476;50.002;11.854;2022-08-19T01:36:41;20.73;;;15.75;;
46729;SDS011;32476;50.002;11.854;2022-08-19T01:39:16;23.80;;;17.52;;
46729;SDS011;32476;50.002;11.854;2022-08-19T01:41:46;14.95;;;13.35;;
46729;SDS011;32476;50.002;11.854;2022-08-19T01:44:14;16.23;;;14.52;;
46729;SDS011;32476;50.002;11.854;2022-08-19T01:46:43;16.00;;;14.30;;
46729;SDS011;32476;50.002;11.854;2022-08-19T01:49:09;1589.15;;;145.80;;
46729;SDS011;32476;50.002;11.854;2022-08-19T01:51:37;16.45;;;14.02;;
46729;SDS011;32476;50.002;11.854;2022-08-19T01:54:03;18.58;;;13.10;;
46729;SDS011;32476;50.002;11.854;2022-08-19T01:56:30;1999.90;;;999.90;;
46729;SDS011;32476;50.002;11.854;2022-08-19T01:58:58;1782.88;;;808.95;;
46729;SDS011;32476;50.002;11.854;2022-08-19T02:01:28;17.63;;;15.52;;
46729;SDS011;32476;50.002;11.854;2022-08-19T02:03:58;1509.97;;;759.13;;
46729;SDS011;32476;50.002;11.854;2022-08-19T02:06:25;1999.90;;;999.90;;
46729;SDS011;32476;50.002;11.854;2022-08-19T02:08:53;204.73;;;30.92;;
46729;SDS011;32476;50.002;11.854;2022-08-19T02:11:28;62.47;;;10.23;;
46729;SDS011;32476;50.002;11.854;2022-08-19T02:13:59;1999.90;;;999.90;;
46729;SDS011;32476;50.002;11.854;2022-08-19T02:16:29;1999.90;;;999.90;;
46729;SDS011;32476;50.002;11.854;2022-08-19T02:18:55;541.92;;;242.63;;
46729;SDS011;32476;50.002;11.854;2022-08-19T02:21:22;1999.90;;;999.90;;
46729;SDS011;32476;50.002;11.854;2022-08-19T02:23:50;20.88;;;14.23;;
46729;SDS011;32476;50.002;11.854;2022-08-19T02:26:16;18.55;;;15.43;;
46729;SDS011;32476;50.002;11.854;2022-08-19T02:28:43;19.85;;;17.20;;
46729;SDS011;32476;50.002;11.854;2022-08-19T02:31:12;21.58;;;18.02;;
46729;SDS011;32476;50.002;11.854;2022-08-19T02:33:41;35.35;;;16.38;;
46729;SDS011;32476;50.002;11.854;2022-08-19T02:36:07;1999.90;;;999.90;;
46729;SDS011;32476;50.002;11.854;2022-08-19T02:38:37;1999.90;;;999.90;;
46729;SDS011;32476;50.002;11.854;2022-08-19T02:41:08;1999.90;;;999.90;;
46729;SDS011;32476;50.002;11.854;2022-08-19T02:43:43;97.47;;;23.17;;
46729;SDS011;32476;50.002;11.854;2022-08-19T02:46:23;184.02;;;47.55;;
46729;SDS011;32476;50.002;11.854;2022-08-19T02:48:56;20.02;;;15.10;;
46729;SDS011;32476;50.002;11.854;2022-08-19T02:51:27;17.35;;;14.65;;
46729;SDS011;32476;50.002;11.854;2022-08-19T02:53:58;1999.90;;;999.90;;
46729;SDS011;32476;50.002;11.854;2022-08-19T02:56:25;1999.90;;;999.90;;
46729;SDS011;32476;50.002;11.854;2022-08-19T02:58:53;1999.90;;;999.90;;
46729;SDS011;32476;50.002;11.854;2022-08-19T03:01:23;1999.90;;;999.90;;
46729;SDS011;32476;50.002;11.854;2022-08-19T03:03:55;2.55;;;2.35;;
46729;SDS011;32476;50.002;11.854;2022-08-19T03:06:26;2.75;;;2.58;;
46729;SDS011;32476;50.002;11.854;2022-08-19T03:08:53;1999.90;;;999.90;;
46729;SDS011;32476;50.002;11.854;2022-08-19T03:11:22;1999.90;;;999.90;;
46729;SDS011;32476;50.002;11.854;2022-08-19T03:13:53;122.18;;;111.38;;
46729;SDS011;32476;50.002;11.854;2022-08-19T03:16:22;243.85;;;227.90;;
46729;SDS011;32476;50.002;11.854;2022-08-19T03:18:50;188.32;;;176.63;;
46729;SDS011;32476;50.002;11.854;2022-08-19T03:21:20;1999.90;;;999.90;;
46729;SDS011;32476;50.002;11.854;2022-08-19T03:23:53;1999.90;;;999.90;;
46729;SDS011;32476;50.002;11.854;2022-08-19T03:26:21;1999.90;;;999.90;;
46729;SDS011;32476;50.002;11.854;2022-08-19T03:28:47;1999.90;;;999.90;;
46729;SDS011;32476;50.002;11.854;2022-08-19T03:31:16;1999.90;;;999.90;;
46729;SDS011;32476;50.002;11.854;2022-08-19T03:33:48;1999.90;;;999.90;;
46729;SDS011;32476;50.002;11.854;2022-08-19T03:36:18;1999.90;;;999.90;;
46729;SDS011;32476;50.002;11.854;2022-08-19T03:38:51;160.60;;;150.35;;
46729;SDS011;32476;50.002;11.854;2022-08-19T03:41:26;238.77;;;226.35;;
46729;SDS011;32476;50.002;11.854;2022-08-19T03:43:59;362.90;;;344.90;;
46729;SDS011;32476;50.002;11.854;2022-08-19T03:46:26;331.70;;;314.52;;
46729;SDS011;32476;50.002;11.854;2022-08-19T03:48:55;1999.90;;;999.90;;
46729;SDS011;32476;50.002;11.854;2022-08-19T03:51:28;1999.90;;;999.90;;
46729;SDS011;32476;50.002;11.854;2022-08-19T03:53:58;1999.90;;;999.90;;
46729;SDS011;32476;50.002;11.854;2022-08-19T03:56:28;1121.90;;;545.22;;
46729;SDS011;32476;50.002;11.854;2022-08-19T03:58:55;1999.90;;;999.90;;
46729;SDS011;32476;50.002;11.854;2022-08-19T04:01:23;182.40;;;163.63;;
46729;SDS011;32476;50.002;11.854;2022-08-19T04:03:53;1677.30;;;785.60;;
46729;SDS011;32476;50.002;11.854;2022-08-19T04:06:22;176.48;;;80.35;;
46729;SDS011;32476;50.002;11.854;2022-08-19T04:08:54;30.38;;;21.15;;
46729;SDS011;32476;50.002;11.854;2022-08-19T04:11:23;540.03;;;100.28;;
46729;SDS011;32476;50.002;11.854;2022-08-19T04:13:53;158.88;;;28.50;;
46729;SDS011;32476;50.002;11.854;2022-08-19T04:16:21;61.20;;;24.00;;
46729;SDS011;32476;50.002;11.854;2022-08-19T04:18:50;67.03;;;23.35;;
46729;SDS011;32476;50.002;11.854;2022-08-19T04:21:19;137.55;;;32.00;;
46729;SDS011;32476;50.002;11.854;2022-08-19T04:23:47;769.17;;;202.40;;
46729;SDS011;32476;50.002;11.854;2022-08-19T04:26:14;969.50;;;358.30;;
46729;SDS011;32476;50.002;11.854;2022-08-19T04:28:45;26.02;;;17.23;;
46729;SDS011;32476;50.002;11.854;2022-08-19T04:31:13;25.70;;;18.65;;
46729;SDS011;32476;50.002;11.854;2022-08-19T04:33:42;100.00;;;25.63;;
46729;SDS011;32476;50.002;11.854;2022-08-19T04:36:44;23.35;;;17.20;;
46729;SDS011;32476;50.002;11.854;2022-08-19T04:39:04;1999.90;;;999.90;;
46729;SDS011;32476;50.002;11.854;2022-08-19T04:41:38;1050.03;;;512.97;;
46729;SDS011;32476;50.002;11.854;2022-08-19T04:44:22;119.80;;;29.10;;
46729;SDS011;32476;50.002;11.854;2022-08-19T04:46:50;747.15;;;356.35;;
46729;SDS011;32476;50.002;11.854;2022-08-19T04:49:17;1999.90;;;999.90;;
46729;SDS011;32476;50.002;11.854;2022-08-19T04:51:47;22.60;;;16.45;;
46729;SDS011;32476;50.002;11.854;2022-08-19T04:54:16;1999.90;;;999.90;;
46729;SDS011;32476;50.002;11.854;2022-08-19T04:56:43;1999.90;;;999.90;;
46729;SDS011;32476;50.002;11.854;2022-08-19T04:59:09;1999.90;;;999.90;;
46729;SDS011;32476;50.002;11.854;2022-08-19T05:01:37;1999.90;;;999.90;;
46729;SDS011;32476;50.002;11.854;2022-08-19T05:04:04;1999.90;;;999.90;;
46729;SDS011;32476;50.002;11.854;2022-08-19T05:06:32;1999.90;;;999.90;;
46729;SDS011;32476;50.002;11.854;2022-08-19T05:09:00;1999.90;;;999.90;;
46729;SDS011;32476;50.002;11.854;2022-08-19T05:11:31;1999.90;;;999.90;;
46729;SDS011;32476;50.002;11.854;2022-08-19T05:14:06;1999.90;;;999.90;;
46729;SDS011;32476;50.002;11.854;2022-08-19T05:16:33;1999.90;;;999.90;;
46729;SDS011;32476;50.002;11.854;2022-08-19T05:18:59;1999.90;;;999.90;;
46729;SDS011;32476;50.002;11.854;2022-08-19T05:21:45;1999.90;;;999.90;;
46729;SDS011;32476;50.002;11.854;2022-08-19T05:24:30;1999.90;;;999.90;;
46729;SDS011;32476;50.002;11.854;2022-08-19T05:27:00;1999.90;;;999.90;;
46729;SDS011;32476;50.002;11.854;2022-08-19T05:29:28;1999.90;;;999.90;;
46729;SDS011;32476;50.002;11.854;2022-08-19T05:31:57;1999.90;;;999.90;;
46729;SDS011;32476;50.002;11.854;2022-08-19T05:34:26;1999.90;;;999.90;;
46729;SDS011;32476;50.002;11.854;2022-08-19T05:36:58;1999.90;;;999.90;;
46729;SDS011;32476;50.002;11.854;2022-08-19T05:39:27;1999.90;;;999.90;;
46729;SDS011;32476;50.002;11.854;2022-08-19T05:42:02;1999.90;;;999.90;;
46729;SDS011;32476;50.002;11.854;2022-08-19T05:44:34;1999.90;;;999.90;;
46729;SDS011;32476;50.002;11.854;2022-08-19T05:47:05;1999.90;;;999.90;;
46729;SDS011;32476;50.002;11.854;2022-08-19T05:49:35;1999.90;;;999.90;;
46729;SDS011;32476;50.002;11.854;2022-08-19T05:52:04;1999.90;;;999.90;;
46729;SDS011;32476;50.002;11.854;2022-08-19T05:54:36;1999.90;;;999.90;;
46729;SDS011;32476;50.002;11.854;2022-08-19T05:57:05;1999.90;;;999.90;;
46729;SDS011;32476;50.002;11.854;2022-08-19T05:59:31;1999.90;;;999.90;;
46729;SDS011;32476;50.002;11.854;2022-08-19T06:02:01;1999.90;;;999.90;;
46729;SDS011;32476;50.002;11.854;2022-08-19T06:04:29;1999.90;;;999.90;;
46729;SDS011;32476;50.002;11.854;2022-08-19T06:06:55;1999.90;;;999.90;;
46729;SDS011;32476;50.002;11.854;2022-08-19T06:09:23;1999.90;;;999.90;;
46729;SDS011;32476;50.002;11.854;2022-08-19T06:11:50;1999.90;;;999.90;;
46729;SDS011;32476;50.002;11.854;2022-08-19T06:14:20;1999.90;;;999.90;;
46729;SDS011;32476;50.002;11.854;2022-08-19T06:16:51;1999.90;;;999.90;;
46729;SDS011;32476;50.002;11.854;2022-08-19T06:19:18;1999.90;;;999.90;;
46729;SDS011;32476;50.002;11.854;2022-08-19T06:21:47;1999.90;;;999.90;;
46729;SDS011;32476;50.002;11.854;2022-08-19T06:24:21;1999.90;;;999.90;;
46729;SDS011;32476;50.002;11.854;2022-08-19T06:26:50;1999.90;;;999.90;;
46729;SDS011;32476;50.002;11.854;2022-08-19T06:29:23;1999.90;;;999.90;;
46729;SDS011;32476;50.002;11.854;2022-08-19T06:31:52;1999.90;;;999.90;;
46729;SDS011;32476;50.002;11.854;2022-08-19T06:34:22;1999.90;;;999.90;;
46729;SDS011;32476;50.002;11.854;2022-08-19T06:36:51;1999.90;;;999.90;;
46729;SDS011;32476;50.002;11.854;2022-08-19T06:39:22;1999.90;;;999.90;;
46729;SDS011;32476;50.002;11.854;2022-08-19T06:41:53;1999.90;;;999.90;;
46729;SDS011;32476;50.002;11.854;2022-08-19T06:44:24;1999.90;;;999.90;;
46729;SDS011;32476;50.002;11.854;2022-08-19T06:46:54;1999.90;;;999.90;;
46729;SDS011;32476;50.002;11.854;2022-08-19T06:49:21;1999.90;;;999.90;;
46729;SDS011;32476;50.002;11.854;2022-08-19T06:51:48;1999.90;;;999.90;;
46729;SDS011;32476;50.002;11.854;2022-08-19T06:54:17;1999.90;;;999.90;;
46729;SDS011;32476;50.002;11.854;2022-08-19T06:56:44;1999.90;;;999.90;;
46729;SDS011;32476;50.002;11.854;2022-08-19T06:59:12;1999.90;;;999.90;;
46729;SDS011;32476;50.002;11.854;2022-08-19T07:01:47;1999.90;;;999.90;;
46729;SDS011;32476;50.002;11.854;2022-08-19T07:04:20;1999.90;;;999.90;;
46729;SDS011;32476;50.002;11.854;2022-08-19T07:06:58;1999.90;;;999.90;;
46729;SDS011;32476;50.002;11.854;2022-08-19T07:09:32;1999.90;;;999.90;;
46729;SDS011;32476;50.002;11.854;2022-08-19T07:12:04;1999.90;;;999.90;;
46729;SDS011;32476;50.002;11.854;2022-08-19T07:14:32;1999.90;;;999.90;;
46729;SDS011;32476;50.002;11.854;2022-08-19T07:17:06;1999.90;;;999.90;;
46729;SDS011;32476;50.002;11.854;2022-08-19T07:19:35;1999.90;;;999.90;;
46729;SDS011;32476;50.002;11.854;2022-08-19T07:22:05;1999.90;;;999.90;;
46729;SDS011;32476;50.002;11.854;2022-08-19T07:24:33;1999.90;;;999.90;;
46729;SDS011;32476;50.002;11.854;2022-08-19T07:27:00;1999.90;;;999.90;;
46729;SDS011;32476;50.002;11.854;2022-08-19T07:29:32;1999.90;;;999.90;;
46729;SDS011;32476;50.002;11.854;2022-08-19T07:32:00;1999.90;;;999.90;;
46729;SDS011;32476;50.002;11.854;2022-08-19T07:34:27;1999.90;;;999.90;;
46729;SDS011;32476;50.002;11.854;2022-08-19T07:36:57;1999.90;;;999.90;;
46729;SDS011;32476;50.002;11.854;2022-08-19T07:39:24;1999.90;;;999.90;;
46729;SDS011;32476;50.002;11.854;2022-08-19T07:41:55;1999.90;;;999.90;;
46729;SDS011;32476;50.002;11.854;2022-08-19T07:44:24;1999.90;;;999.90;;
46729;SDS011;32476;50.002;11.854;2022-08-19T07:46:52;1999.90;;;999.90;;
46729;SDS011;32476;50.002;11.854;2022-08-19T07:49:21;1999.90;;;999.90;;
46729;SDS011;32476;50.002;11.854;2022-08-19T07:51:54;1999.90;;;999.90;;
46729;SDS011;32476;50.002;11.854;2022-08-19T07:54:23;1999.90;;;999.90;;
46729;SDS011;32476;50.002;11.854;2022-08-19T07:56:53;1999.90;;;999.90;;
46729;SDS011;32476;50.002;11.854;2022-08-19T07:59:21;1999.90;;;999.90;;
46729;SDS011;32476;50.002;11.854;2022-08-19T08:01:48;1999.90;;;999.90;;
46729;SDS011;32476;50.002;11.854;2022-08-19T08:04:17;1999.90;;;999.90;;
46729;SDS011;32476;50.002;11.854;2022-08-19T08:07:03;1999.90;;;999.90;;
46729;SDS011;32476;50.002;11.854;2022-08-19T08:09:51;299.70;;;218.55;;
46729;SDS011;32476;50.002;11.854;2022-08-19T08:12:19;1999.90;;;999.90;;
46729;SDS011;32476;50.002;11.854;2022-08-19T08:14:53;1999.90;;;999.90;;
46729;SDS011;32476;50.002;11.854;2022-08-19T08:17:24;1999.90;;;999.90;;
46729;SDS011;32476;50.002;11.854;2022-08-19T08:19:53;1999.90;;;999.90;;
46729;SDS011;32476;50.002;11.854;2022-08-19T08:22:20;753.58;;;695.42;;
46729;SDS011;32476;50.002;11.854;2022-08-19T08:25:12;1999.90;;;999.90;;
46729;SDS011;32476;50.002;11.854;2022-08-19T08:27:44;1999.90;;;999.90;;
46729;SDS011;32476;50.002;11.854;2022-08-19T08:30:14;1999.90;;;999.90;;
46729;SDS011;32476;50.002;11.854;2022-08-19T08:32:44;1999.90;;;999.90;;
46729;SDS011;32476;50.002;11.854;2022-08-19T08:35:12;176.35;;;100.72;;
46729;SDS011;32476;50.002;11.854;2022-08-19T08:37:43;0.28;;;0.28;;
46729;SDS011;32476;50.002;11.854;2022-08-19T08:40:20;18.23;;;17.33;;
46729;SDS011;32476;50.002;11.854;2022-08-19T08:43:39;2.05;;;1.95;;
46729;SDS011;32476;50.002;11.854;2022-08-19T08:46:05;0.30;;;0.30;;
46729;SDS011;32476;50.002;11.854;2022-08-19T08:48:48;0.40;;;0.40;;
46729;SDS011;32476;50.002;11.854;2022-08-19T08:51:21;0.10;;;0.10;;
46729;SDS011;32476;50.002;11.854;2022-08-19T08:53:59;0.10;;;0.10;;
46729;SDS011;32476;50.002;11.854;2022-08-19T08:56:27;0.10;;;0.10;;
46729;SDS011;32476;50.002;11.854;2022-08-19T09:01:25;0.10;;;0.10;;
46729;SDS011;32476;50.002;11.854;2022-08-19T09:03:52;0.10;;;0.10;;
46729;SDS011;32476;50.002;11.854;2022-08-19T09:06:37;1.95;;;1.90;;
46729;SDS011;32476;50.002;11.854;2022-08-19T09:09:40;15.85;;;14.95;;
46729;SDS011;32476;50.002;11.854;2022-08-19T09:15:07;16.55;;;12.45;;
46729;SDS011;32476;50.002;11.854;2022-08-19T09:17:39;0.60;;;0.60;;
46729;SDS011;32476;50.002;11.854;2022-08-19T09:22:41;208.75;;;192.35;;
46729;SDS011;32476;50.002;11.854;2022-08-19T09:25:13;224.75;;;213.75;;
46729;SDS011;32476;50.002;11.854;2022-08-19T09:27:43;9.75;;;9.35;;
46729;SDS011;32476;50.002;11.854;2022-08-19T09:30:20;18.08;;;17.27;;
46729;SDS011;32476;50.002;11.854;2022-08-19T09:32:52;14.60;;;13.98;;
46729;SDS011;32476;50.002;11.854;2022-08-19T09:35:22;36.33;;;34.63;;
46729;SDS011;32476;50.002;11.854;2022-08-19T09:37:52;11.00;;;10.25;;
46729;SDS011;32476;50.002;11.854;2022-08-19T09:40:19;1.83;;;1.77;;
46729;SDS011;32476;50.002;11.854;2022-08-19T09:42:45;1.15;;;1.15;;
46729;SDS011;32476;50.002;11.854;2022-08-19T09:45:15;7.60;;;7.22;;
46729;SDS011;32476;50.002;11.854;2022-08-19T09:47:43;5.60;;;5.38;;
46729;SDS011;32476;50.002;11.854;2022-08-19T09:50:11;0.80;;;0.80;;
46729;SDS011;32476;50.002;11.854;2022-08-19T09:52:39;0.80;;;0.80;;
46729;SDS011;32476;50.002;11.854;2022-08-19T09:55:08;0.80;;;0.80;;
46729;SDS011;32476;50.002;11.854;2022-08-19T09:57:35;33.03;;;30.63;;
46729;SDS011;32476;50.002;11.854;2022-08-19T10:00:04;321.35;;;306.23;;
46729;SDS011;32476;50.002;11.854;2022-08-19T10:02:34;1999.90;;;999.90;;
46729;SDS011;32476;50.002;11.854;2022-08-19T10:05:01;1999.90;;;999.90;;
46729;SDS011;32476;50.002;11.854;2022-08-19T10:07:47;1999.90;;;999.90;;
46729;SDS011;32476;50.002;11.854;2022-08-19T10:10:13;1999.90;;;999.90;;
46729;SDS011;32476;50.002;11.854;2022-08-19T10:12:40;1999.90;;;999.90;;
46729;SDS011;32476;50.002;11.854;2022-08-19T10:15:08;1999.90;;;999.90;;
46729;SDS011;32476;50.002;11.854;2022-08-19T10:17:34;1999.90;;;999.90;;
46729;SDS011;32476;50.002;11.854;2022-08-19T10:20:01;1999.90;;;999.90;;
46729;SDS011;32476;50.002;11.854;2022-08-19T10:22:31;1999.90;;;999.90;;
46729;SDS011;32476;50.002;11.854;2022-08-19T10:24:56;1999.90;;;999.90;;
46729;SDS011;32476;50.002;11.854;2022-08-19T10:27:23;67.20;;;59.15;;
46729;SDS011;32476;50.002;11.854;2022-08-19T10:29:50;1999.90;;;999.90;;
46729;SDS011;32476;50.002;11.854;2022-08-19T10:32:16;1999.90;;;999.90;;
46729;SDS011;32476;50.002;11.854;2022-08-19T10:34:43;1999.90;;;999.90;;
46729;SDS011;32476;50.002;11.854;2022-08-19T10:37:10;1999.90;;;999.90;;
46729;SDS011;32476;50.002;11.854;2022-08-19T10:39:36;1999.90;;;999.90;;
46729;SDS011;32476;50.002;11.854;2022-08-19T10:42:05;1999.90;;;999.90;;
46729;SDS011;32476;50.002;11.854;2022-08-19T10:44:34;1999.90;;;999.90;;
46729;SDS011;32476;50.002;11.854;2022-08-19T10:47:00;216.90;;;191.25;;
46729;SDS011;32476;50.002;11.854;2022-08-19T10:49:28;1095.20;;;574.22;;
46729;SDS011;32476;50.002;11.854;2022-08-19T10:51:56;151.65;;;141.65;;
46729;SDS011;32476;50.002;11.854;2022-08-19T10:54:41;78.10;;;70.97;;
46729;SDS011;32476;50.002;11.854;2022-08-19T10:57:30;36.38;;;32.13;;
46729;SDS011;32476;50.002;11.854;2022-08-19T10:59:57;44.45;;;40.05;;
46729;SDS011;32476;50.002;11.854;2022-08-19T11:02:23;34.45;;;29.33;;
46729;SDS011;32476;50.002;11.854;2022-08-19T11:04:51;44.55;;;40.15;;
46729;SDS011;32476;50.002;11.854;2022-08-19T11:07:17;55.03;;;49.28;;
46729;SDS011;32476;50.002;11.854;2022-08-19T11:09:43;59.55;;;54.55;;
46729;SDS011;32476;50.002;11.854;2022-08-19T11:12:10;52.38;;;46.88;;
46729;SDS011;32476;50.002;11.854;2022-08-19T11:14:37;62.67;;;57.40;;
46729;SDS011;32476;50.002;11.854;2022-08-19T11:17:04;50.90;;;46.08;;
46729;SDS011;32476;50.002;11.854;2022-08-19T11:19:33;43.08;;;38.97;;
46729;SDS011;32476;50.002;11.854;2022-08-19T11:22:00;37.22;;;29.05;;
46729;SDS011;32476;50.002;11.854;2022-08-19T11:24:27;82.97;;;75.03;;
46729;SDS011;32476;50.002;11.854;2022-08-19T11:27:00;32.38;;;28.70;;
46729;SDS011;32476;50.002;11.854;2022-08-19T11:29:31;30.73;;;26.10;;
46729;SDS011;32476;50.002;11.854;2022-08-19T11:32:03;36.85;;;25.63;;
46729;SDS011;32476;50.002;11.854;2022-08-19T11:34:35;27.55;;;24.67;;
46729;SDS011;32476;50.002;11.854;2022-08-19T11:37:03;27.63;;;24.73;;
46729;SDS011;32476;50.002;11.854;2022-08-19T11:39:32;1999.90;;;999.90;;
46729;SDS011;32476;50.002;11.854;2022-08-19T11:42:00;117.13;;;110.00;;
46729;SDS011;32476;50.002;11.854;2022-08-19T11:44:29;214.43;;;53.90;;
46729;SDS011;32476;50.002;11.854;2022-08-19T11:46:55;21.05;;;17.25;;
46729;SDS011;32476;50.002;11.854;2022-08-19T11:49:21;74.20;;;52.05;;
46729;SDS011;32476;50.002;11.854;2022-08-19T11:51:49;24.63;;;18.70;;
46729;SDS011;32476;50.002;11.854;2022-08-19T11:54:16;26.60;;;20.65;;
46729;SDS011;32476;50.002;11.854;2022-08-19T11:56:43;28.10;;;21.02;;
46729;SDS011;32476;50.002;11.854;2022-08-19T11:59:12;28.05;;;20.42;;
46729;SDS011;32476;50.002;11.854;2022-08-19T12:01:38;28.48;;;20.92;;
46729;SDS011;32476;50.002;11.854;2022-08-19T12:04:07;27.65;;;20.70;;
46729;SDS011;32476;50.002;11.854;2022-08-19T12:06:37;24.27;;;18.95;;
46729;SDS011;32476;50.002;11.854;2022-08-19T12:09:05;25.95;;;19.77;;
46729;SDS011;32476;50.002;11.854;2022-08-19T12:11:36;24.90;;;19.88;;
46729;SDS011;32476;50.002;11.854;2022-08-19T12:14:04;29.92;;;19.25;;
46729;SDS011;32476;50.002;11.854;2022-08-19T12:16:32;24.73;;;18.83;;
46729;SDS011;32476;50.002;11.854;2022-08-19T12:19:00;25.52;;;17.88;;
46729;SDS011;32476;50.002;11.854;2022-08-19T12:21:29;25.50;;;18.30;;
46729;SDS011;32476;50.002;11.854;2022-08-19T12:23:59;26.42;;;21.83;;
46729;SDS011;32476;50.002;11.854;2022-08-19T12:26:28;30.55;;;19.80;;
46729;SDS011;32476;50.002;11.854;2022-08-19T12:28:56;0.00;;;0.00;;
46729;SDS011;32476;50.002;11.854;2022-08-19T12:31:27;0.00;;;0.00;;
46729;SDS011;32476;50.002;11.854;2022-08-19T12:33:53;0.00;;;0.00;;
46729;SDS011;32476;50.002;11.854;2022-08-19T12:36:21;0.00;;;0.00;;
46729;SDS011;32476;50.002;11.854;2022-08-19T12:38:50;0.00;;;0.00;;
46729;SDS011;32476;50.002;11.854;2022-08-19T12:41:17;0.00;;;0.00;;
46729;SDS011;32476;50.002;11.854;2022-08-19T12:43:44;0.00;;;0.00;;
46729;SDS011;32476;50.002;11.854;2022-08-19T12:46:12;0.00;;;0.00;;
46729;SDS011;32476;50.002;11.854;2022-08-19T12:48:39;0.00;;;0.00;;
46729;SDS011;32476;50.002;11.854;2022-08-19T12:51:11;0.00;;;0.00;;
46729;SDS011;32476;50.002;11.854;2022-08-19T12:53:44;0.00;;;0.00;;
46729;SDS011;32476;50.002;11.854;2022-08-19T12:56:12;0.00;;;0.00;;
46729;SDS011;32476;50.002;11.854;2022-08-19T12:58:40;0.00;;;0.00;;
46729;SDS011;32476;50.002;11.854;2022-08-19T13:01:09;0.00;;;0.00;;
46729;SDS011;32476;50.002;11.854;2022-08-19T13:03:38;0.00;;;0.00;;
46729;SDS011;32476;50.002;11.854;2022-08-19T13:06:04;0.00;;;0.00;;
46729;SDS011;32476;50.002;11.854;2022-08-19T13:08:32;0.00;;;0.00;;
46729;SDS011;32476;50.002;11.854;2022-08-19T13:11:05;0.00;;;0.00;;
46729;SDS011;32476;50.002;11.854;2022-08-19T13:13:44;0.00;;;0.00;;
46729;SDS011;32476;50.002;11.854;2022-08-19T13:16:12;0.00;;;0.00;;
46729;SDS011;32476;50.002;11.854;2022-08-19T13:18:40;0.00;;;0.00;;
46729;SDS011;32476;50.002;11.854;2022-08-19T13:21:10;0.00;;;0.00;;
46729;SDS011;32476;50.002;11.854;2022-08-19T13:23:38;0.00;;;0.00;;
46729;SDS011;32476;50.002;11.854;2022-08-19T13:26:06;0.00;;;0.00;;
46729;SDS011;32476;50.002;11.854;2022-08-19T13:28:36;0.00;;;0.00;;
46729;SDS011;32476;50.002;11.854;2022-08-19T13:31:22;0.00;;;0.00;;
46729;SDS011;32476;50.002;11.854;2022-08-19T13:34:11;0.00;;;0.00;;
46729;SDS011;32476;50.002;11.854;2022-08-19T13:36:37;0.00;;;0.00;;
46729;SDS011;32476;50.002;11.854;2022-08-19T13:39:04;0.00;;;0.00;;
46729;SDS011;32476;50.002;11.854;2022-08-19T13:41:34;0.00;;;0.00;;
46729;SDS011;32476;50.002;11.854;2022-08-19T13:44:02;0.00;;;0.00;;
46729;SDS011;32476;50.002;11.854;2022-08-19T13:46:30;0.00;;;0.00;;
46729;SDS011;32476;50.002;11.854;2022-08-19T13:48:57;0.00;;;0.00;;
46729;SDS011;32476;50.002;11.854;2022-08-19T13:51:23;0.00;;;0.00;;
46729;SDS011;32476;50.002;11.854;2022-08-19T13:53:49;0.00;;;0.00;;
46729;SDS011;32476;50.002;11.854;2022-08-19T13:56:17;0.00;;;0.00;;
46729;SDS011;32476;50.002;11.854;2022-08-19T13:58:45;0.00;;;0.00;;
46729;SDS011;32476;50.002;11.854;2022-08-19T14:01:11;0.00;;;0.00;;
46729;SDS011;32476;50.002;11.854;2022-08-19T14:03:39;0.00;;;0.00;;
46729;SDS011;32476;50.002;11.854;2022-08-19T14:06:05;0.00;;;0.00;;
46729;SDS011;32476;50.002;11.854;2022-08-19T14:08:31;0.00;;;0.00;;
46729;SDS011;32476;50.002;11.854;2022-08-19T14:10:59;80.25;;;71.88;;
46729;SDS011;32476;50.002;11.854;2022-08-19T14:13:25;14.32;;;12.93;;
46729;SDS011;32476;50.002;11.854;2022-08-19T14:15:51;14.40;;;11.80;;
46729;SDS011;32476;50.002;11.854;2022-08-19T14:18:19;16.88;;;11.52;;
46729;SDS011;32476;50.002;11.854;2022-08-19T14:20:46;15.65;;;11.57;;